N284DP KEDJ-KEDJ
Flight info
| Callsign | N284DP |
|---|---|
| Flight time | 0h 14m |
| Altitude | 4500 |
| Route | ROD |
| Aircraft | SR22/L-SDGRY/S |
Departure
| Time | 2026-04-27 03:16 |
|---|---|
| Airport | Bellefontaine Regional Airport (KEDJ) |
Arrival
| Time | 2026-04-27 03:30 |
|---|---|
| Airport | Bellefontaine Regional Airport (KEDJ) |
| Time | Latitude | Longitude | Altitude | Speed | Heading |
|---|---|---|---|---|---|
| 2026-04-27 03:07 | 40.37087 | -83.81796 | 1116 ft | 0 kts | 157° |
| 2026-04-27 03:12 | 40.37102 | -83.81789 | 1110 ft | 13 kts | 265° |
| 2026-04-27 03:12 | 40.37119 | -83.81893 | 1116 ft | 16 kts | 262° |
| 2026-04-27 03:12 | 40.37074 | -83.82057 | 1110 ft | 22 kts | 249° |
| 2026-04-27 03:12 | 40.37011 | -83.82263 | 1111 ft | 26 kts | 250° |
| 2026-04-27 03:13 | 40.36945 | -83.82501 | 1106 ft | 29 kts | 248° |
| 2026-04-27 03:13 | 40.36895 | -83.82676 | 1106 ft | 12 kts | 249° |
| 2026-04-27 03:13 | 40.36903 | -83.82715 | 1101 ft | 0 kts | 330° |
| 2026-04-27 03:13 | 40.36906 | -83.82717 | 1102 ft | 0 kts | 334° |
| 2026-04-27 03:14 | 40.36907 | -83.82717 | 1102 ft | 0 kts | 334° |
| 2026-04-27 03:15 | 40.36912 | -83.82720 | 1103 ft | 5 kts | 337° |
| 2026-04-27 03:15 | 40.36997 | -83.82721 | 1105 ft | 18 kts | 62° |
| 2026-04-27 03:15 | 40.37119 | -83.82314 | 1120 ft | 77 kts | 68° |
| 2026-04-27 03:16 | 40.37357 | -83.81572 | 1345 ft | 90 kts | 77° |
| 2026-04-27 03:16 | 40.37609 | -83.80820 | 1643 ft | 96 kts | 67° |
| 2026-04-27 03:16 | 40.37927 | -83.79939 | 1841 ft | 117 kts | 67° |
| 2026-04-27 03:16 | 40.38291 | -83.78990 | 2257 ft | 112 kts | 68° |
| 2026-04-27 03:17 | 40.38691 | -83.78125 | 2649 ft | 112 kts | 67° |
| 2026-04-27 03:17 | 40.39090 | -83.77228 | 2984 ft | 115 kts | 66° |
| 2026-04-27 03:17 | 40.39339 | -83.76264 | 3302 ft | 112 kts | 102° |
| 2026-04-27 03:17 | 40.38808 | -83.75590 | 3634 ft | 119 kts | 163° |
| 2026-04-27 03:18 | 40.37955 | -83.75595 | 3935 ft | 124 kts | 173° |
| 2026-04-27 03:18 | 40.37042 | -83.75586 | 4025 ft | 139 kts | 173° |
| 2026-04-27 03:18 | 40.36038 | -83.75564 | 4031 ft | 149 kts | 173° |
| 2026-04-27 03:18 | 40.34981 | -83.75537 | 4030 ft | 155 kts | 177° |
| 2026-04-27 03:19 | 40.33971 | -83.76155 | 4016 ft | 172 kts | 221° |
| 2026-04-27 03:19 | 40.33424 | -83.77588 | 4017 ft | 177 kts | 241° |
| 2026-04-27 03:19 | 40.32806 | -83.78975 | 4031 ft | 176 kts | 232° |
| 2026-04-27 03:19 | 40.32143 | -83.80348 | 4026 ft | 179 kts | 233° |
| 2026-04-27 03:20 | 40.31487 | -83.81712 | 4025 ft | 178 kts | 233° |
| 2026-04-27 03:20 | 40.30833 | -83.83098 | 4028 ft | 178 kts | 233° |
| 2026-04-27 03:20 | 40.30166 | -83.84461 | 4027 ft | 178 kts | 232° |
| 2026-04-27 03:20 | 40.29505 | -83.85858 | 3915 ft | 183 kts | 233° |
| 2026-04-27 03:21 | 40.28831 | -83.87289 | 3748 ft | 184 kts | 233° |
| 2026-04-27 03:21 | 40.28152 | -83.88715 | 3577 ft | 185 kts | 233° |
| 2026-04-27 03:21 | 40.27477 | -83.90169 | 3360 ft | 190 kts | 233° |
| 2026-04-27 03:21 | 40.26783 | -83.91657 | 3113 ft | 192 kts | 233° |
| 2026-04-27 03:22 | 40.26110 | -83.93139 | 3025 ft | 185 kts | 233° |
| 2026-04-27 03:22 | 40.25494 | -83.94551 | 3017 ft | 177 kts | 234° |
| 2026-04-27 03:22 | 40.24899 | -83.95928 | 3013 ft | 171 kts | 233° |
| 2026-04-27 03:22 | 40.24301 | -83.97263 | 3011 ft | 169 kts | 233° |
| 2026-04-27 03:23 | 40.23711 | -83.98591 | 3005 ft | 170 kts | 233° |
| 2026-04-27 03:23 | 40.23125 | -83.99928 | 3002 ft | 169 kts | 233° |
| 2026-04-27 03:23 | 40.22549 | -84.01258 | 3015 ft | 168 kts | 233° |
| 2026-04-27 03:23 | 40.21997 | -84.02620 | 3002 ft | 172 kts | 245° |
| 2026-04-27 03:24 | 40.22036 | -84.04180 | 3001 ft | 179 kts | 292° |
| 2026-04-27 03:24 | 40.22878 | -84.05309 | 3003 ft | 173 kts | 341° |
| 2026-04-27 03:24 | 40.24021 | -84.05701 | 3014 ft | 170 kts | 353° |
| 2026-04-27 03:24 | 40.25177 | -84.06038 | 3016 ft | 170 kts | 353° |
| 2026-04-27 03:25 | 40.26313 | -84.05984 | 3011 ft | 161 kts | 22° |
| 2026-04-27 03:25 | 40.27372 | -84.05587 | 3007 ft | 156 kts | 27° |
| 2026-04-27 03:25 | 40.28276 | -84.04884 | 3006 ft | 150 kts | 47° |
| 2026-04-27 03:25 | 40.28950 | -84.03890 | 3007 ft | 143 kts | 63° |
| 2026-04-27 03:26 | 40.29482 | -84.02813 | 3011 ft | 139 kts | 64° |
| 2026-04-27 03:26 | 40.29989 | -84.01716 | 3017 ft | 143 kts | 66° |
| 2026-04-27 03:26 | 40.30500 | -84.00594 | 3013 ft | 142 kts | 66° |
| 2026-04-27 03:26 | 40.30998 | -83.99489 | 3013 ft | 140 kts | 65° |
| 2026-04-27 03:27 | 40.31513 | -83.98394 | 3022 ft | 143 kts | 65° |
| 2026-04-27 03:27 | 40.32031 | -83.97275 | 3015 ft | 144 kts | 66° |
| 2026-04-27 03:27 | 40.32540 | -83.96150 | 3010 ft | 142 kts | 66° |
| 2026-04-27 03:27 | 40.33048 | -83.95034 | 3014 ft | 144 kts | 66° |
| 2026-04-27 03:28 | 40.33568 | -83.93902 | 2946 ft | 147 kts | 66° |
| 2026-04-27 03:28 | 40.34106 | -83.92724 | 2765 ft | 155 kts | 66° |
| 2026-04-27 03:28 | 40.34662 | -83.91504 | 2541 ft | 158 kts | 65° |
| 2026-04-27 03:28 | 40.35224 | -83.90249 | 2360 ft | 159 kts | 64° |
| 2026-04-27 03:29 | 40.35799 | -83.89000 | 2149 ft | 157 kts | 66° |
| 2026-04-27 03:29 | 40.36091 | -83.87617 | 1852 ft | 160 kts | 89° |
| 2026-04-27 03:29 | 40.36131 | -83.86185 | 1630 ft | 161 kts | 83° |
| 2026-04-27 03:29 | 40.36399 | -83.84855 | 1442 ft | 142 kts | 66° |
| 2026-04-27 03:30 | 40.36702 | -83.83702 | 1320 ft | 124 kts | 72° |
| 2026-04-27 03:30 | 40.37019 | -83.82656 | 1110 ft | 121 kts | 71° |
| 2026-04-27 03:30 | 40.37274 | -83.81724 | 1131 ft | 99 kts | 67° |
| 2026-04-27 03:30 | 40.37457 | -83.81141 | 1122 ft | 25 kts | 66° |